Time;durP1;ratioP1;P1;durP2;ratioP2;P2;SDS_P1;SDS_P2;PMS_P1;PMS_P2;Temp;Humidity;BMP_temperature;BMP_pressure;BME280_temperature;BME280_humidity;BME280_pressure;Samples;Min_cycle;Max_cycle;Signal;HPM_P1;HPM_P2
2023/06/14 00:02:20;;;;;;;5.32;2.97;;;;;;;12.04;100.00;98410.56;4469578;32;20077;-64
2023/06/14 00:04:51;;;;;;;7.75;3.33;;;;;;;11.99;100.00;98407.59;4455191;32;20548;-64
2023/06/14 00:07:23;;;;;;;8.55;3.08;;;;;;;12.07;100.00;98406.81;4469554;32;20168;-64
2023/06/14 00:09:53;;;;;;;9.80;3.20;;;;;;;12.03;100.00;98405.47;4469692;32;20468;-64
2023/06/14 00:12:22;;;;;;;5.47;3.33;;;;;;;12.05;100.00;98411.38;4469492;32;20176;-64
2023/06/14 00:14:49;;;;;;;4.82;3.05;;;;;;;12.12;100.00;98407.16;4455131;32;20414;-64
2023/06/14 00:17:18;;;;;;;5.28;2.87;;;;;;;12.07;100.00;98405.00;4469666;32;20138;-64
2023/06/14 00:19:45;;;;;;;6.30;3.60;;;;;;;12.05;100.00;98406.97;4469399;32;20121;-64
2023/06/14 00:22:13;;;;;;;4.90;3.12;;;;;;;12.04;100.00;98409.75;4469658;32;20148;-64
2023/06/14 00:24:40;;;;;;;5.07;3.15;;;;;;;12.09;100.00;98417.97;4469485;32;20123;-64
2023/06/14 00:27:07;;;;;;;10.30;3.20;;;;;;;12.06;100.00;98423.53;4469843;32;20092;-64
2023/06/14 00:29:35;;;;;;;4.72;2.95;;;;;;;12.07;100.00;98420.75;4469371;32;20153;-64
2023/06/14 00:32:03;;;;;;;6.32;2.95;;;;;;;12.03;100.00;98421.22;4469486;32;20101;-64
2023/06/14 00:34:30;;;;;;;8.27;3.35;;;;;;;12.02;100.00;98414.31;4469522;32;20108;-64
2023/06/14 00:36:58;;;;;;;7.40;4.03;;;;;;;12.04;100.00;98415.00;4469482;32;20161;-64
2023/06/14 00:39:25;;;;;;;5.20;3.20;;;;;;;11.99;100.00;98419.88;4469599;32;20146;-64
2023/06/14 00:41:52;;;;;;;8.68;3.30;;;;;;;11.99;100.00;98425.13;4469362;32;20420;-64
2023/06/14 00:44:19;;;;;;;5.90;3.40;;;;;;;12.02;100.00;98423.03;4469409;32;20088;-64
2023/06/14 00:46:47;;;;;;;5.12;3.20;;;;;;;11.99;100.00;98425.13;4469381;32;20127;-64
2023/06/14 00:49:15;;;;;;;5.43;3.30;;;;;;;12.02;100.00;98422.19;4469384;32;20097;-64
2023/06/14 00:51:42;;;;;;;5.28;3.25;;;;;;;11.94;100.00;98425.59;4469198;32;20152;-64
2023/06/14 00:54:10;;;;;;;5.37;3.20;;;;;;;12.00;100.00;98424.16;4469472;32;20097;-64
2023/06/14 00:56:38;;;;;;;7.20;3.78;;;;;;;11.97;100.00;98421.84;4469474;32;20145;-64
2023/06/14 00:59:05;;;;;;;10.38;4.03;;;;;;;11.89;100.00;98425.22;4468632;32;20121;-64
2023/06/14 01:01:33;;;;;;;6.20;3.62;;;;;;;11.83;100.00;98418.78;4455230;32;20128;-64
2023/06/14 01:04:04;;;;;;;5.82;3.70;;;;;;;11.79;100.00;98417.41;4469234;32;20108;-64
2023/06/14 01:06:44;;;;;;;6.65;3.30;;;;;;;11.78;100.00;98421.03;4469108;32;20089;-64
2023/06/14 01:09:15;;;;;;;8.25;3.60;;;;;;;11.74;100.00;98414.44;4469157;32;20076;-64
2023/06/14 01:11:56;;;;;;;11.07;4.00;;;;;;;11.68;100.00;98415.87;4469102;32;20107;-64
2023/06/14 01:14:26;;;;;;;6.80;3.87;;;;;;;11.71;100.00;98414.75;4469178;32;20201;-64
2023/06/14 01:16:55;;;;;;;8.18;3.67;;;;;;;11.70;100.00;98415.72;4455051;32;20500;-64
2023/06/14 01:19:25;;;;;;;5.68;3.58;;;;;;;11.64;100.00;98411.09;4469012;32;20089;-64
2023/06/14 01:21:55;;;;;;;7.25;3.83;;;;;;;11.59;100.00;98414.16;4469102;32;20509;-64
2023/06/14 01:24:25;;;;;;;6.53;3.47;;;;;;;11.57;100.00;98407.41;4469076;32;20210;-64
2023/06/14 01:26:55;;;;;;;6.15;3.62;;;;;;;11.56;100.00;98411.03;4469064;32;20151;-64
2023/06/14 01:29:25;;;;;;;9.00;4.12;;;;;;;11.54;100.00;98419.88;4469004;32;20516;-64
2023/06/14 01:31:53;;;;;;;9.48;4.25;;;;;;;11.47;100.00;98412.75;4441951;32;20116;-64
2023/06/14 01:34:22;;;;;;;9.82;3.92;;;;;;;11.49;100.00;98414.28;4455050;32;20127;-64
2023/06/14 01:36:52;;;;;;;11.15;4.10;;;;;;;11.51;100.00;98416.75;4455071;32;20165;-64
2023/06/14 01:39:19;;;;;;;7.50;4.10;;;;;;;11.51;100.00;98417.56;4454734;32;20160;-64
2023/06/14 01:41:49;;;;;;;10.13;4.97;;;;;;;11.50;100.00;98413.28;4454767;32;20080;-64
2023/06/14 01:44:19;;;;;;;10.77;5.50;;;;;;;11.47;100.00;98421.44;4455022;32;20100;-64
2023/06/14 01:46:46;;;;;;;9.80;4.37;;;;;;;11.45;100.00;98418.16;4454610;32;20174;-64
2023/06/14 01:49:14;;;;;;;9.18;4.65;;;;;;;11.46;100.00;98414.56;4468807;32;20088;-64
2023/06/14 01:51:41;;;;;;;43.83;7.87;;;;;;;11.45;100.00;98417.34;4454464;32;20441;-64
2023/06/14 01:54:09;;;;;;;17.37;5.12;;;;;;;11.44;100.00;98413.88;4468722;32;20092;-65
2023/06/14 01:56:38;;;;;;;25.30;5.40;;;;;;;11.40;100.00;98428.31;4468673;32;20088;-64
2023/06/14 01:59:05;;;;;;;11.10;5.05;;;;;;;11.46;100.00;98427.69;4468585;32;20592;-64
2023/06/14 02:01:34;;;;;;;12.60;5.32;;;;;;;11.47;100.00;98428.50;4465929;32;79954;-64
2023/06/14 02:04:02;;;;;;;10.80;4.87;;;;;;;11.40;100.00;98422.22;4468706;32;20108;-64
2023/06/14 02:06:29;;;;;;;9.63;5.20;;;;;;;11.31;100.00;98419.53;4468196;32;20158;-64
2023/06/14 02:08:56;;;;;;;9.77;5.55;;;;;;;11.34;100.00;98423.66;4468472;32;20156;-64
2023/06/14 02:11:26;;;;;;;12.70;5.78;;;;;;;11.31;100.00;98431.78;4469991;32;20088;-64
2023/06/14 02:13:55;;;;;;;10.95;5.80;;;;;;;11.32;100.00;98428.22;4470789;32;20154;-64
2023/06/14 02:16:22;;;;;;;12.20;5.18;;;;;;;11.26;100.00;98429.63;4470316;32;20123;-64
2023/06/14 02:18:51;;;;;;;17.15;6.40;;;;;;;11.19;100.00;98432.03;4470521;32;20175;-64
2023/06/14 02:21:18;;;;;;;10.90;5.78;;;;;;;11.23;100.00;98431.72;4470020;32;20093;-64
2023/06/14 02:23:46;;;;;;;13.48;5.97;;;;;;;11.23;100.00;98423.87;4470505;32;20096;-64
2023/06/14 02:26:13;;;;;;;12.73;6.25;;;;;;;11.13;100.00;98422.16;4470404;32;20165;-64
2023/06/14 02:28:40;;;;;;;12.23;5.53;;;;;;;11.13;100.00;98416.09;4470771;32;20435;-64
2023/06/14 02:31:08;;;;;;;13.48;6.62;;;;;;;11.12;100.00;98430.16;4470326;32;20076;-64
2023/06/14 02:33:35;;;;;;;10.70;5.97;;;;;;;11.14;100.00;98430.81;4470234;32;20088;-64
2023/06/14 02:36:03;;;;;;;13.48;5.90;;;;;;;11.15;100.00;98430.69;4470490;32;20643;-64
2023/06/14 02:38:33;;;;;;;13.23;6.03;;;;;;;11.17;100.00;98428.75;4470372;32;20077;-64
2023/06/14 02:41:01;;;;;;;15.20;6.22;;;;;;;11.14;100.00;98434.28;4470258;32;20105;-64
2023/06/14 02:43:29;;;;;;;12.20;6.45;;;;;;;11.19;100.00;98431.22;4470255;32;20115;-64
2023/06/14 02:45:58;;;;;;;14.40;6.80;;;;;;;11.16;100.00;98444.63;4456387;32;20142;-64
2023/06/14 02:48:25;;;;;;;12.10;5.93;;;;;;;11.11;100.00;98431.97;4470233;32;20101;-64
2023/06/14 02:50:52;;;;;;;13.93;6.53;;;;;;;11.12;100.00;98430.97;4470352;32;20150;-64
2023/06/14 02:53:20;;;;;;;15.52;6.12;;;;;;;11.13;100.00;98426.56;4470191;32;20092;-64
2023/06/14 02:55:48;;;;;;;14.93;6.50;;;;;;;11.10;100.00;98429.50;4470236;32;20517;-64
2023/06/14 02:58:15;;;;;;;14.13;6.70;;;;;;;11.10;100.00;98430.31;4470302;32;20198;-64
2023/06/14 03:00:43;;;;;;;15.60;6.62;;;;;;;11.09;100.00;98436.50;4470372;32;20522;-64
2023/06/14 03:03:13;;;;;;;15.93;7.07;;;;;;;11.07;100.00;98435.84;4470069;32;20135;-64
2023/06/14 03:05:49;;;;;;;16.45;6.60;;;;;;;11.11;100.00;98429.34;4470395;32;20096;-64
2023/06/14 03:08:19;;;;;;;15.60;6.62;;;;;;;11.16;100.00;98428.91;4470200;32;20093;-64
2023/06/14 03:10:52;;;;;;;14.32;6.90;;;;;;;11.15;100.00;98430.69;4470223;32;20069;-64
2023/06/14 03:13:21;;;;;;;15.27;7.05;;;;;;;11.23;100.00;98421.25;4469817;32;20119;-64
2023/06/14 03:15:50;;;;;;;15.43;7.57;;;;;;;11.32;100.00;98430.84;4470087;32;20122;-64
2023/06/14 03:18:19;;;;;;;15.98;6.82;;;;;;;11.38;100.00;98435.47;4470045;32;20126;-64
2023/06/14 03:20:46;;;;;;;12.13;6.80;;;;;;;11.47;100.00;98439.00;4455945;32;20545;-64
2023/06/14 03:23:13;;;;;;;13.70;6.72;;;;;;;11.54;100.00;98430.37;4469898;32;20173;-64
2023/06/14 03:25:42;;;;;;;18.05;7.90;;;;;;;11.71;100.00;98425.25;4470251;32;20096;-64
2023/06/14 03:28:10;;;;;;;16.30;6.87;;;;;;;11.83;100.00;98431.91;4470133;32;20100;-64
2023/06/14 03:30:37;;;;;;;21.58;7.70;;;;;;;11.88;100.00;98429.66;4455416;32;20113;-64
2023/06/14 03:33:04;;;;;;;16.23;7.55;;;;;;;11.90;100.00;98440.81;4469915;32;20123;-64
2023/06/14 03:35:33;;;;;;;15.10;7.03;;;;;;;12.02;100.00;98437.94;4469975;32;20511;-64
2023/06/14 03:38:02;;;;;;;13.52;6.82;;;;;;;12.06;100.00;98434.03;4469966;32;20096;-64
2023/06/14 03:40:31;;;;;;;15.00;6.90;;;;;;;12.19;100.00;98444.97;4469934;32;20089;-64
2023/06/14 03:42:59;;;;;;;14.40;6.35;;;;;;;12.19;100.00;98450.22;4469998;32;20104;-64
2023/06/14 03:45:27;;;;;;;15.55;6.50;;;;;;;12.28;100.00;98445.00;4469859;32;20158;-64
2023/06/14 03:47:56;;;;;;;20.45;7.43;;;;;;;12.33;100.00;98440.94;4470029;32;20584;-64
2023/06/14 03:50:23;;;;;;;15.38;6.72;;;;;;;12.36;100.00;98442.44;4469704;32;20462;-64
2023/06/14 03:52:51;;;;;;;14.77;7.03;;;;;;;12.53;100.00;98438.87;4469820;32;20169;-64
2023/06/14 03:55:18;;;;;;;13.55;6.55;;;;;;;12.60;100.00;98447.78;4469986;32;20092;-64
2023/06/14 03:57:48;;;;;;;13.18;7.30;;;;;;;12.63;100.00;98454.53;4469532;32;20437;-64
2023/06/14 04:00:16;;;;;;;14.48;6.62;;;;;;;12.72;100.00;98450.16;4455906;32;20111;-64
2023/06/14 04:02:44;;;;;;;16.35;7.57;;;;;;;12.74;100.00;98448.97;4469634;32;20151;-64
2023/06/14 04:05:11;;;;;;;20.25;7.10;;;;;;;12.89;100.00;98451.03;4469583;32;20093;-64
2023/06/14 04:07:44;;;;;;;16.42;7.28;;;;;;;12.91;100.00;98455.16;4469758;32;20097;-64
2023/06/14 04:10:13;;;;;;;13.15;6.53;;;;;;;12.96;100.00;98458.09;4469951;32;20073;-64
2023/06/14 04:12:40;;;;;;;12.82;6.50;;;;;;;12.99;100.00;98462.22;4469675;32;20155;-64
2023/06/14 04:15:10;;;;;;;18.35;7.43;;;;;;;13.10;100.00;98461.09;4469835;32;20097;-64
2023/06/14 04:17:48;;;;;;;14.02;6.75;;;;;;;13.22;100.00;98461.63;4469031;32;20688;-64
2023/06/14 04:20:16;;;;;;;14.60;6.93;;;;;;;13.17;100.00;98470.00;4469133;32;20139;-64
2023/06/14 04:22:45;;;;;;;15.35;7.37;;;;;;;13.21;100.00;98468.66;4469276;32;20137;-64
2023/06/14 04:25:13;;;;;;;15.55;6.57;;;;;;;13.31;100.00;98472.00;4464781;32;20088;-64
2023/06/14 04:27:41;;;;;;;12.95;6.40;;;;;;;13.35;100.00;98466.44;4468743;32;20101;-65
2023/06/14 04:30:09;;;;;;;15.88;6.50;;;;;;;13.46;100.00;98472.22;4468656;32;20109;-64
2023/06/14 04:32:38;;;;;;;14.25;7.22;;;;;;;13.54;100.00;98468.75;4468076;32;20500;-64
2023/06/14 04:35:07;;;;;;;13.60;7.05;;;;;;;13.54;100.00;98479.28;4469421;32;20424;-64
2023/06/14 04:37:39;;;;;;;14.02;6.53;;;;;;;13.69;100.00;98473.34;4469757;32;20097;-64
2023/06/14 04:40:08;;;;;;;13.10;6.50;;;;;;;13.85;100.00;98476.00;4469335;32;20506;-64
2023/06/14 04:42:40;;;;;;;16.85;7.75;;;;;;;13.89;100.00;98474.69;4469861;32;20119;-64
2023/06/14 04:45:09;;;;;;;16.95;6.43;;;;;;;14.01;100.00;98478.63;4469528;32;20274;-64
2023/06/14 04:47:37;;;;;;;14.87;6.43;;;;;;;14.12;100.00;98487.16;4469741;32;20485;-64
2023/06/14 04:50:05;;;;;;;12.13;5.65;;;;;;;14.22;100.00;98485.19;4469539;32;20096;-64
2023/06/14 04:52:33;;;;;;;11.82;5.65;;;;;;;14.38;100.00;98479.88;4469401;32;20152;-64
2023/06/14 04:55:01;;;;;;;10.77;5.32;;;;;;;14.48;100.00;98478.88;4469058;32;20093;-64
2023/06/14 04:57:29;;;;;;;13.38;5.37;;;;;;;14.55;100.00;98485.13;4469313;32;20105;-64
2023/06/14 05:00:00;;;;;;;17.02;6.55;;;;;;;14.54;100.00;98483.47;4469373;32;20482;-64
2023/06/14 05:02:30;;;;;;;17.52;6.50;;;;;;;14.58;100.00;98484.78;4469636;32;20100;-64
2023/06/14 05:04:59;;;;;;;20.27;7.85;;;;;;;14.67;100.00;98486.41;4468083;32;20088;-64
2023/06/14 05:07:26;;;;;;;12.00;5.93;;;;;;;14.85;100.00;98486.19;4460744;32;20116;-63
2023/06/14 05:09:54;;;;;;;19.62;7.15;;;;;;;14.88;100.00;98485.84;4472884;32;20097;-64
2023/06/14 05:12:21;;;;;;;15.52;6.30;;;;;;;15.02;100.00;98483.47;4467594;32;20105;-64
2023/06/14 05:14:50;;;;;;;17.58;6.30;;;;;;;15.29;100.00;98487.44;4470695;32;20084;-65
2023/06/14 05:17:17;;;;;;;12.43;5.85;;;;;;;15.46;100.00;98488.16;4466304;32;20119;-64
2023/06/14 05:19:46;;;;;;;10.45;5.95;;;;;;;15.56;100.00;98487.91;4457571;32;20516;-63
2023/06/14 05:22:13;;;;;;;30.55;6.50;;;;;;;15.68;100.00;98486.50;4454700;32;20473;-64
2023/06/14 05:24:41;;;;;;;16.67;5.75;;;;;;;15.81;100.00;98493.06;4468858;32;20495;-63
2023/06/14 05:27:09;;;;;;;12.27;5.75;;;;;;;16.06;100.00;98498.94;4481194;32;20227;-64
2023/06/14 05:29:37;;;;;;;16.40;5.70;;;;;;;16.34;100.00;98495.72;4480991;32;20612;-64
2023/06/14 05:32:05;;;;;;;16.27;5.68;;;;;;;16.41;100.00;98496.62;4475441;32;20488;-64
2023/06/14 05:34:33;;;;;;;33.25;6.53;;;;;;;16.19;100.00;98503.62;4469639;32;20157;-64
2023/06/14 05:37:01;;;;;;;15.25;5.97;;;;;;;16.12;100.00;98503.50;4468154;32;20119;-65
2023/06/14 05:39:29;;;;;;;14.82;5.62;;;;;;;16.20;100.00;98494.69;4467823;32;20127;-64
2023/06/14 05:41:56;;;;;;;13.05;5.75;;;;;;;16.28;100.00;98502.53;4468411;32;20127;-64
2023/06/14 05:44:23;;;;;;;15.27;5.55;;;;;;;16.37;100.00;98501.47;4467380;32;20162;-64
2023/06/14 05:46:50;;;;;;;11.70;5.30;;;;;;;16.54;100.00;98501.28;4467911;32;20799;-65
2023/06/14 05:49:18;;;;;;;19.95;6.15;;;;;;;16.65;100.00;98506.09;4468583;32;20119;-65
2023/06/14 05:51:45;;;;;;;19.87;6.30;;;;;;;16.92;100.00;98515.25;4468557;32;20096;-65
2023/06/14 05:54:12;;;;;;;36.30;6.12;;;;;;;17.16;100.00;98510.66;4468331;32;20429;-65
2023/06/14 05:56:40;;;;;;;15.00;5.70;;;;;;;17.46;100.00;98511.41;4467408;32;20180;-65
2023/06/14 05:59:07;;;;;;;22.50;7.43;;;;;;;17.34;100.00;98507.59;4468126;32;20093;-65
2023/06/14 06:01:36;;;;;;;22.52;5.90;;;;;;;17.22;100.00;98507.25;4468313;32;20124;-64
2023/06/14 06:04:04;;;;;;;23.45;5.37;;;;;;;17.30;100.00;98514.28;4467343;32;20139;-65
2023/06/14 06:06:32;;;;;;;19.33;5.45;;;;;;;17.50;100.00;98512.66;4461597;32;20116;-65
2023/06/14 06:09:00;;;;;;;14.85;5.60;;;;;;;17.31;100.00;98508.78;4465295;32;20104;-66
2023/06/14 06:11:27;;;;;;;17.10;5.30;;;;;;;17.14;100.00;98508.19;4464896;32;20755;-65
2023/06/14 06:14:06;;;;;;;26.58;5.70;;;;;;;16.88;100.00;98513.16;4464718;32;20132;-64
2023/06/14 06:16:35;;;;;;;17.00;5.18;;;;;;;16.89;100.00;98520.09;4463925;32;20105;-65
2023/06/14 06:19:02;;;;;;;16.48;5.25;;;;;;;17.32;100.00;98509.59;4464974;32;20151;-65
2023/06/14 06:21:29;;;;;;;11.90;5.35;;;;;;;17.42;100.00;98511.97;4465307;32;20101;-65
2023/06/14 06:23:57;;;;;;;16.33;5.22;;;;;;;18.00;100.00;98517.22;4464880;32;20498;-65
2023/06/14 06:26:26;;;;;;;13.68;5.20;;;;;;;18.38;100.00;98519.53;4464038;32;20154;-64
2023/06/14 06:28:53;;;;;;;12.55;5.65;;;;;;;18.82;100.00;98515.75;4465435;32;20739;-65
2023/06/14 06:31:22;;;;;;;25.10;8.20;;;;;;;18.97;100.00;98513.78;4465182;32;20545;-65
2023/06/14 06:33:50;;;;;;;23.70;5.00;;;;;;;19.01;100.00;98521.38;4464657;32;20150;-65
2023/06/14 06:36:17;;;;;;;11.50;5.03;;;;;;;18.72;100.00;98515.28;4464289;32;20431;-65
2023/06/14 06:38:45;;;;;;;60.28;8.32;;;;;;;18.43;100.00;98520.59;4465020;32;20180;-65
2023/06/14 06:41:12;;;;;;;12.73;5.12;;;;;;;18.50;100.00;98515.34;4461688;32;20104;-65
2023/06/14 06:43:40;;;;;;;11.20;5.32;;;;;;;18.37;100.00;98523.22;4456760;32;20105;-65
2023/06/14 06:46:08;;;;;;;14.43;5.57;;;;;;;18.32;100.00;98522.97;4454026;32;20158;-65
2023/06/14 06:48:35;;;;;;;20.37;5.05;;;;;;;18.67;100.00;98529.13;4456553;32;20160;-65
2023/06/14 06:51:02;;;;;;;24.05;5.87;;;;;;;18.35;100.00;98523.41;4461846;32;20169;-65
2023/06/14 06:53:30;;;;;;;11.57;4.70;;;;;;;18.37;100.00;98524.03;4464054;32;20112;-66
2023/06/14 06:56:08;;;;;;;25.60;5.60;;;;;;;18.80;100.00;98531.88;4465594;32;20557;-66
2023/06/14 06:58:37;;;;;;;18.23;5.10;;;;;;;18.89;100.00;98537.03;4465359;32;20109;-65
2023/06/14 07:01:05;;;;;;;16.87;5.30;;;;;;;19.02;100.00;98536.28;4446797;32;20100;-66
2023/06/14 07:03:32;;;;;;;11.32;4.87;;;;;;;18.74;100.00;98535.31;4457423;32;20092;-66
2023/06/14 07:05:59;;;;;;;7.75;4.75;;;;;;;19.04;100.00;98534.25;4457971;32;20193;-64
2023/06/14 07:08:27;;;;;;;8.77;5.53;;;;;;;19.47;100.00;98544.59;4456170;32;20179;-63
2023/06/14 07:10:55;;;;;;;17.05;5.57;;;;;;;19.28;100.00;98541.69;4459746;32;20104;-64
2023/06/14 07:13:23;;;;;;;8.95;5.15;;;;;;;18.79;100.00;98534.72;4455920;32;20105;-65
2023/06/14 07:15:53;;;;;;;9.73;5.65;;;;;;;18.96;100.00;98538.69;4456293;32;20101;-66
2023/06/14 07:18:22;;;;;;;11.93;5.90;;;;;;;19.03;100.00;98537.91;4462129;32;20114;-66
2023/06/14 07:20:50;;;;;;;10.95;5.47;;;;;;;19.25;100.00;98542.09;4457173;32;20109;-66
2023/06/14 07:23:17;;;;;;;15.77;6.80;;;;;;;19.33;100.00;98533.12;4455418;32;20088;-65
2023/06/14 07:25:45;;;;;;;15.45;6.97;;;;;;;19.25;100.00;98535.97;4457775;32;20093;-65
2023/06/14 07:28:13;;;;;;;11.20;5.18;;;;;;;19.35;98.38;98535.56;4459941;32;20131;-65
2023/06/14 07:30:40;;;;;;;9.80;5.15;;;;;;;19.48;100.00;98530.31;4456854;32;20170;-66
2023/06/14 07:33:08;;;;;;;8.13;4.93;;;;;;;19.82;100.00;98532.03;4462169;32;20175;-64
2023/06/14 07:35:36;;;;;;;11.88;5.72;;;;;;;20.27;99.73;98528.75;4463804;32;20116;-65
2023/06/14 07:38:03;;;;;;;7.45;4.60;;;;;;;19.83;97.53;98530.19;4466566;32;20119;-65
2023/06/14 07:40:30;;;;;;;9.68;4.72;;;;;;;19.99;96.70;98539.63;4465058;32;20800;-65
2023/06/14 07:42:57;;;;;;;9.63;4.72;;;;;;;20.55;92.30;98544.50;4465242;32;20159;-65
2023/06/14 07:45:25;;;;;;;7.97;4.62;;;;;;;20.96;93.81;98549.78;4465250;32;20088;-63
2023/06/14 07:47:52;;;;;;;8.52;5.10;;;;;;;21.11;92.71;98546.88;4460514;32;20124;-66
2023/06/14 07:50:20;;;;;;;8.35;4.53;;;;;;;21.25;87.59;98557.22;4464353;32;20154;-65
2023/06/14 07:52:48;;;;;;;10.27;4.65;;;;;;;21.03;88.27;98553.22;4464989;32;20145;-65
2023/06/14 07:55:15;;;;;;;9.45;4.60;;;;;;;21.31;85.06;98560.91;4463726;32;20134;-66
2023/06/14 07:57:44;;;;;;;10.18;4.68;;;;;;;21.31;84.20;98566.22;4462416;32;20176;-64
2023/06/14 08:00:15;;;;;;;8.55;4.25;;;;;;;21.15;84.95;98556.03;4463807;32;20132;-65
2023/06/14 08:02:43;;;;;;;9.57;4.72;;;;;;;21.30;85.38;98555.78;4464843;32;20122;-64
2023/06/14 08:05:11;;;;;;;12.48;5.35;;;;;;;21.17;82.77;98560.13;4463850;32;20119;-64
2023/06/14 08:07:39;;;;;;;8.38;4.57;;;;;;;21.47;82.69;98567.59;4459746;32;20097;-65
2023/06/14 08:10:07;;;;;;;8.25;4.12;;;;;;;21.52;77.93;98564.34;4460690;32;20485;-65
2023/06/14 08:12:34;;;;;;;7.78;4.40;;;;;;;21.62;79.69;98562.03;4463332;32;20174;-65
2023/06/14 08:15:01;;;;;;;10.07;4.55;;;;;;;21.97;77.90;98565.06;4462981;32;20144;-65
2023/06/14 08:17:45;;;;;;;14.05;4.37;;;;;;;21.82;73.33;98561.06;4463236;32;20157;-65
2023/06/14 08:20:13;;;;;;;8.85;4.25;;;;;;;21.66;72.62;98557.06;4461677;32;20096;-64
2023/06/14 08:22:42;;;;;;;9.35;3.92;;;;;;;21.64;71.17;98556.47;4463503;32;20127;-65
2023/06/14 08:25:12;;;;;;;10.32;5.07;;;;;;;21.51;73.47;98560.03;4464411;32;20135;-65
2023/06/14 08:27:39;;;;;;;5.90;4.07;;;;;;;21.39;73.14;98560.69;4462285;32;20093;-63
2023/06/14 08:30:08;;;;;;;7.07;3.80;;;;;;;21.36;75.61;98571.75;4463328;32;20096;-65
2023/06/14 08:32:36;;;;;;;6.15;3.70;;;;;;;21.49;75.16;98570.06;4464670;32;20175;-64
2023/06/14 08:35:05;;;;;;;4.80;3.22;;;;;;;21.43;73.17;98575.19;4450857;32;20104;-64
2023/06/14 08:37:33;;;;;;;6.53;4.15;;;;;;;21.48;74.10;98571.06;4463561;32;20101;-65
2023/06/14 08:40:01;;;;;;;8.90;4.20;;;;;;;21.37;76.61;98581.38;4464355;32;20477;-65
2023/06/14 08:42:32;;;;;;;8.75;4.20;;;;;;;21.35;74.67;98588.75;4464477;32;20430;-65
2023/06/14 08:45:00;;;;;;;12.68;4.22;;;;;;;21.43;75.15;98591.19;4449727;32;20130;-65
2023/06/14 08:47:29;;;;;;;7.80;4.32;;;;;;;21.51;72.02;98589.34;4461595;32;20124;-65
2023/06/14 08:49:57;;;;;;;8.90;3.95;;;;;;;21.28;74.28;98603.97;4459868;32;20131;-65
2023/06/14 08:52:30;;;;;;;8.85;4.47;;;;;;;21.65;76.13;98595.41;4464252;32;20569;-65
2023/06/14 08:54:59;;;;;;;9.35;4.25;;;;;;;22.06;73.87;98608.31;4449514;32;20089;-65
2023/06/14 08:57:30;;;;;;;8.38;4.40;;;;;;;22.21;73.09;98596.50;4465708;32;20438;-65
2023/06/14 08:59:57;;;;;;;7.07;3.95;;;;;;;22.21;71.32;98609.84;4451735;32;20101;-65
2023/06/14 09:02:25;;;;;;;10.30;4.47;;;;;;;;;;4465738;32;20110;-65
2023/06/14 09:04:53;;;;;;;6.43;4.00;;;;;;;22.31;72.50;98608.34;4464856;32;20150;-65
2023/06/14 09:07:21;;;;;;;8.38;4.28;;;;;;;22.23;68.54;98605.13;4444397;32;20101;-66
2023/06/14 09:09:48;;;;;;;9.35;4.15;;;;;;;22.55;73.44;98607.78;4465204;32;20165;-65
2023/06/14 09:12:33;;;;;;;6.20;3.80;;;;;;;22.45;69.90;98605.56;4456711;32;20101;-65
2023/06/14 09:15:00;;;;;;;7.62;3.72;;;;;;;22.00;70.76;98613.69;4464132;32;20135;-66
2023/06/14 09:17:27;;;;;;;5.43;3.53;;;;;;;21.84;69.01;98607.03;4462714;32;20130;-65
2023/06/14 09:19:55;;;;;;;5.57;3.35;;;;;;;22.00;68.51;98603.00;4463246;32;20131;-66
2023/06/14 09:22:22;;;;;;;5.32;3.17;;;;;;;22.23;65.36;98600.59;4457191;32;21020;-65
2023/06/14 09:24:50;;;;;;;7.85;4.18;;;;;;;22.08;64.84;98603.56;4464418;32;20104;-65
2023/06/14 09:27:17;;;;;;;7.72;3.72;;;;;;;22.11;64.80;98608.47;4456595;32;20097;-66
2023/06/14 09:29:44;;;;;;;5.22;3.75;;;;;;;22.36;67.62;98607.69;4457861;32;20093;-65
2023/06/14 09:32:11;;;;;;;7.85;4.22;;;;;;;22.74;65.91;98606.78;4458977;32;20118;-65
2023/06/14 09:34:39;;;;;;;5.22;3.28;;;;;;;23.09;61.99;98603.56;4460863;32;20116;-65
2023/06/14 09:37:06;;;;;;;5.10;3.17;;;;;;;22.97;60.75;98602.66;4462615;32;20112;-65
2023/06/14 09:39:34;;;;;;;5.80;3.20;;;;;;;22.95;61.06;98602.03;4461451;32;20113;-65
2023/06/14 09:42:17;;;;;;;3.75;2.87;;;;;;;22.82;62.65;98605.66;4460736;32;20174;-65
2023/06/14 09:44:49;;;;;;;5.18;3.30;;;;;;;22.57;61.81;98595.00;4464627;32;20100;-65
2023/06/14 09:47:16;;;;;;;5.62;3.55;;;;;;;21.93;64.66;98595.88;4464878;32;20152;-65
2023/06/14 09:49:44;;;;;;;5.32;3.55;;;;;;;21.73;65.36;98590.66;4459192;32;20097;-66
2023/06/14 09:52:15;;;;;;;7.50;3.58;;;;;;;21.57;64.74;98588.50;4461483;32;20104;-66
2023/06/14 09:54:46;;;;;;;8.25;3.37;;;;;;;21.49;73.51;98596.72;4462509;32;20153;-65
2023/06/14 09:57:14;;;;;;;8.05;3.58;;;;;;;21.72;72.62;98589.00;4463993;32;20080;-65
2023/06/14 09:59:45;;;;;;;5.37;3.55;;;;;;;22.21;78.85;98577.81;4462588;32;20406;-64
2023/06/14 10:02:26;;;;;;;6.03;4.05;;;;;;;22.65;70.23;98589.38;4462740;32;20089;-66
2023/06/14 10:05:03;;;;;;;6.50;3.90;;;;;;;22.60;64.14;98581.22;4461452;32;20097;-66
2023/06/14 10:07:34;;;;;;;8.13;4.12;;;;;;;22.76;67.91;98582.53;4453237;32;20126;-66
2023/06/14 10:10:02;;;;;;;9.05;2.87;;;;;;;22.80;64.17;98581.00;4465816;32;20273;-66
2023/06/14 10:12:30;;;;;;;6.18;2.83;;;;;;;22.78;54.73;98583.91;4463877;32;20105;-66
2023/06/14 10:14:57;;;;;;;5.57;2.60;;;;;;;22.51;52.64;98588.69;4464028;32;20114;-66
2023/06/14 10:17:48;;;;;;;3.83;2.47;;;;;;;22.36;49.03;98581.00;4439794;32;20097;-65
2023/06/14 10:20:28;;;;;;;3.33;2.53;;;;;;;22.68;58.48;98587.09;4459782;32;20089;-66
2023/06/14 10:23:17;;;;;;;3.25;2.40;;;;;;;23.08;60.32;98593.06;4444338;32;20435;-65
2023/06/14 10:25:45;;;;;;;5.62;2.95;;;;;;;22.86;55.56;98580.97;4449578;32;20172;-66
2023/06/14 10:28:19;;;;;;;5.10;2.53;;;;;;;23.04;60.32;98585.50;4461886;32;20541;-65
2023/06/14 10:31:03;;;;;;;4.43;2.60;;;;;;;23.32;56.56;98588.72;4460748;32;20089;-66
2023/06/14 10:33:55;;;;;;;2.95;2.30;;;;;;;22.96;51.37;98579.62;4460234;32;20097;-66
2023/06/14 10:36:22;;;;;;;6.72;2.33;;;;;;;23.03;54.13;98585.72;4466868;32;20646;-65
2023/06/14 10:39:17;;;;;;;3.10;2.25;;;;;;;23.17;55.35;98581.88;4470393;32;20119;-64
2023/06/14 10:41:52;;;;;;;4.32;2.50;;;;;;;23.48;58.01;98576.56;4466129;32;20105;-66
2023/06/14 10:44:21;;;;;;;4.95;2.62;;;;;;;23.55;51.72;98578.09;4467520;32;20085;-68
2023/06/14 10:47:26;;;;;;;10.05;2.12;;;;;;;23.28;49.98;98580.31;4468775;32;20189;-66
2023/06/14 10:50:09;;;;;;;5.37;2.40;;;;;;;23.20;50.15;98569.94;4470776;32;20121;-67
2023/06/14 10:52:42;;;;;;;2.80;2.12;;;;;;;23.14;48.53;98578.84;4466461;32;20363;-68
2023/06/14 10:55:16;;;;;;;6.40;2.75;;;;;;;23.19;49.62;98566.47;4473545;32;20119;-68
2023/06/14 10:57:46;;;;;;;6.03;2.37;;;;;;;23.62;48.98;98562.00;4469572;32;20108;-67
2023/06/14 11:00:20;;;;;;;9.23;2.90;;;;;;;23.46;47.68;98550.06;4472267;32;20446;-67
2023/06/14 11:03:08;;;;;;;2.75;2.10;;;;;;;23.88;50.44;98558.13;4467772;32;20112;-68
2023/06/14 11:05:49;;;;;;;4.70;2.75;;;;;;;24.34;45.21;98554.94;4464724;32;20137;-67
2023/06/14 11:08:38;;;;;;;2.95;2.25;;;;;;;24.13;48.00;98557.12;4460785;32;20139;-66
2023/06/14 11:11:07;;;;;;;4.28;3.00;;;;;;;24.10;47.84;98557.59;4462033;32;20501;-67
2023/06/14 11:13:38;;;;;;;6.95;2.85;;;;;;;23.59;49.95;98559.78;4461464;32;20096;-68
2023/06/14 11:16:13;;;;;;;6.82;2.87;;;;;;;23.71;47.80;98562.50;4461601;32;20503;-68
2023/06/14 11:18:42;;;;;;;3.83;2.55;;;;;;;23.72;47.25;98570.28;4462970;32;20097;-69
2023/06/14 11:21:09;;;;;;;3.47;2.20;;;;;;;23.84;45.59;98562.28;4444208;32;20162;-69
2023/06/14 11:23:37;;;;;;;3.85;2.55;;;;;;;24.18;47.08;98559.94;4455995;32;20176;-70
2023/06/14 11:26:04;;;;;;;2.90;2.22;;;;;;;24.43;42.89;98556.22;4459026;32;20104;-70
2023/06/14 11:28:39;;;;;;;4.72;2.50;;;;;;;24.87;43.42;98562.06;4460530;32;20108;-70
2023/06/14 11:31:07;;;;;;;6.72;2.78;;;;;;;24.99;42.94;98556.69;4459375;32;20418;-70
2023/06/14 11:33:35;;;;;;;7.32;3.50;;;;;;;25.13;44.14;98550.00;4462571;32;20179;-68
2023/06/14 11:36:05;;;;;;;3.67;2.67;;;;;;;25.12;43.00;98550.25;4461963;32;20092;-68